Ana Sayfa
METAR-TAF:

METAR-TAF

Havaalanları :

Cleburne Municipal Airport

Cleburne, Teksas, Amerika Birleşik Devletleri

Enlem: 32-21-13N, Boylam: 097-26-01W, yükseklik: 260 m

Güncel hava durumu gözlemi

Rapor saat 16:35 UTC de 17 dakika önce yapıldı.
Rüzgar batıdan 15 kt ve 25 kt'a kadar ani rüzgarlar
Sıcaklık 15°C
Nem 48%
Basınç 1011 hPa
Görüş mesafesi: 12.9 km
Açık gökyüzü

METAR: KCPT 241635Z AUTO 28015G25KT 8SM CLR 15/04 A2985 RMK A01

Saat: 10:52 (16:52 UTC)


TAF: eksik

4.000'den fazla havaalanı için hava durumu gözlemleri ve tahminleri (METAR ve TAF raporları).

Kullanılabilir istasyonlar harita üzerinde sarı ve kırmızı noktalarla gösterilir.

İstasyonun adını görmek için fareyi noktanın üzerinde gezdirin.

Sonrasında hava gözlem ve tahminlerini görmek için tıklayın.

Haritayı değiştirmek için: yaklaştırmak için siyah artı işaretli yeşil düğmeye ve uzaklaştırmak için de eksi işaretli düğmeye hızla tıklayın; bitişik haritalar için yeşil okları kullanın.


METAR-TAF: